createdAt,value
2023-07-01T00:00:31.822Z,90.85
2023-07-01T00:02:58.431Z,90.36
2023-07-01T00:05:24.996Z,90.65
2023-07-01T00:07:51.621Z,91.16
2023-07-01T00:10:18.235Z,91.06
2023-07-01T00:12:45.680Z,90.99
2023-07-01T00:15:12.365Z,91.86
2023-07-01T00:17:39.112Z,92.06
2023-07-01T00:20:06.192Z,91.95
2023-07-01T00:22:32.716Z,92.31
2023-07-01T00:24:59.307Z,92.91
2023-07-01T00:27:25.833Z,92.94
2023-07-01T00:29:52.346Z,93.26
2023-07-01T00:32:18.969Z,93.18
2023-07-01T00:34:46.842Z,93.82
2023-07-01T00:37:13.421Z,94.33
2023-07-01T00:39:40.002Z,94.12
2023-07-01T00:42:08.884Z,94.62
2023-07-01T00:44:36.251Z,94.72
2023-07-01T00:47:03.024Z,94.62
2023-07-01T00:49:29.617Z,94.53
2023-07-01T00:51:57.430Z,95.35
2023-07-01T00:54:24.425Z,96.16
2023-07-01T00:56:50.973Z,96.73
2023-07-01T00:59:17.646Z,97.11
2023-07-01T01:01:48.442Z,97.01
2023-07-01T01:04:24.661Z,96.62
2023-07-01T01:06:55.973Z,96.51
2023-07-01T01:09:31.581Z,95.94
2023-07-01T01:11:59.683Z,95.95
2023-07-01T01:14:26.140Z,95.71
2023-07-01T01:16:53.801Z,95.89
2023-07-01T01:19:31.387Z,96.03
2023-07-01T01:22:13.826Z,96.06
2023-07-01T01:24:42.849Z,95.53
2023-07-01T01:27:14.856Z,96.08
2023-07-01T01:29:42.065Z,96.24
2023-07-01T01:32:09.165Z,96.78
2023-07-01T01:34:35.752Z,97.79
2023-07-01T01:37:06.505Z,98.50
2023-07-01T01:39:37.570Z,99.48
2023-07-01T01:42:09.620Z,100.00
2023-07-01T01:44:48.200Z,100.00
2023-07-01T01:47:20.306Z,100.00
2023-07-01T01:49:48.179Z,100.00
2023-07-01T01:52:16.553Z,100.00
2023-07-01T01:54:45.964Z,100.00
2023-07-01T01:57:12.978Z,100.00
2023-07-01T01:59:39.701Z,100.00
2023-07-01T02:02:06.692Z,100.00
2023-07-01T02:04:33.337Z,100.00
2023-07-01T02:07:00.123Z,100.00
2023-07-01T02:09:26.718Z,100.00
2023-07-01T02:11:53.364Z,100.00
2023-07-01T02:14:19.925Z,100.00
2023-07-01T02:16:46.501Z,100.00
2023-07-01T02:19:13.047Z,100.00
2023-07-01T02:21:39.807Z,100.00
2023-07-01T02:24:06.647Z,100.00
2023-07-01T02:26:33.254Z,100.00
2023-07-01T02:28:59.950Z,100.00
2023-07-01T02:31:26.610Z,100.00
2023-07-01T02:34:00.926Z,99.66
2023-07-01T02:36:27.635Z,99.55
2023-07-01T02:38:54.171Z,99.99
2023-07-01T02:41:20.690Z,100.00
2023-07-01T02:43:47.452Z,100.00
2023-07-01T02:46:14.182Z,100.00
2023-07-01T02:48:40.778Z,100.00
2023-07-01T02:51:08.423Z,100.00
2023-07-01T02:53:34.954Z,100.00
2023-07-01T02:56:03.581Z,100.00
2023-07-01T02:58:30.124Z,100.00
2023-07-01T03:00:56.660Z,100.00
2023-07-01T03:03:24.519Z,100.00
2023-07-01T03:05:51.147Z,100.00
2023-07-01T03:08:17.832Z,100.00
2023-07-01T03:10:44.806Z,100.00
2023-07-01T03:13:11.551Z,100.00
2023-07-01T03:15:38.232Z,100.00
2023-07-01T03:18:04.808Z,100.00
2023-07-01T03:20:31.360Z,100.00
2023-07-01T03:22:59.148Z,100.00
2023-07-01T03:25:26.945Z,100.00
2023-07-01T03:27:53.843Z,100.00
2023-07-01T03:30:24.482Z,100.00
2023-07-01T03:32:51.071Z,100.00
2023-07-01T03:35:17.774Z,100.00
2023-07-01T03:37:45.387Z,100.00
2023-07-01T03:40:12.189Z,100.00
2023-07-01T03:42:39.726Z,100.00
2023-07-01T03:45:08.889Z,100.00
2023-07-01T03:47:40.150Z,100.00
2023-07-01T03:50:09.186Z,100.00
2023-07-01T03:52:41.135Z,100.00
2023-07-01T03:55:09.545Z,100.00
2023-07-01T03:57:36.102Z,100.00
2023-07-01T04:00:09.655Z,100.00
2023-07-01T04:02:39.226Z,100.00
2023-07-01T04:05:11.945Z,100.00
2023-07-01T04:07:40.161Z,100.00
2023-07-01T04:10:06.889Z,100.00
2023-07-01T04:12:34.383Z,100.00
2023-07-01T04:15:01.586Z,100.00
2023-07-01T04:17:29.718Z,100.00
2023-07-01T04:19:57.123Z,100.00
2023-07-01T04:22:27.486Z,100.00
2023-07-01T04:24:54.146Z,100.00
2023-07-01T04:27:20.896Z,100.00
2023-07-01T04:29:47.570Z,100.00
2023-07-01T04:32:14.085Z,100.00
2023-07-01T04:34:40.733Z,100.00
2023-07-01T04:37:07.263Z,100.00
2023-07-01T04:39:33.809Z,100.00
2023-07-01T04:42:00.345Z,100.00
2023-07-01T04:44:26.946Z,100.00
2023-07-01T04:46:53.630Z,100.00
2023-07-01T04:49:20.332Z,100.00
2023-07-01T04:51:46.908Z,100.00
2023-07-01T04:54:13.515Z,100.00
2023-07-01T04:56:40.023Z,100.00
2023-07-01T04:59:06.777Z,100.00
2023-07-01T05:01:33.421Z,100.00
2023-07-01T05:04:00.297Z,100.00
2023-07-01T05:06:27.092Z,100.00
2023-07-01T05:08:54.666Z,100.00
2023-07-01T05:11:21.264Z,100.00
2023-07-01T05:13:47.918Z,100.00
2023-07-01T05:16:16.937Z,100.00
2023-07-01T05:18:46.787Z,100.00
2023-07-01T05:21:20.635Z,100.00
2023-07-01T05:23:47.765Z,100.00
2023-07-01T05:26:16.022Z,100.00
2023-07-01T05:28:43.198Z,100.00
2023-07-01T05:31:10.556Z,100.00
2023-07-01T05:33:37.287Z,100.00
2023-07-01T05:36:04.093Z,100.00
2023-07-01T05:38:30.661Z,100.00
2023-07-01T05:40:57.225Z,100.00
2023-07-01T05:43:23.847Z,100.00
2023-07-01T05:45:50.486Z,100.00
2023-07-01T05:48:17.116Z,100.00
2023-07-01T05:50:43.879Z,100.00
2023-07-01T05:53:10.807Z,100.00
2023-07-01T05:55:37.834Z,100.00
2023-07-01T05:58:04.705Z,100.00
2023-07-01T06:00:32.271Z,100.00
2023-07-01T06:02:59.044Z,100.00
2023-07-01T06:05:26.248Z,100.00
2023-07-01T06:07:53.065Z,100.00
2023-07-01T06:10:19.648Z,100.00
2023-07-01T06:12:46.651Z,100.00
2023-07-01T06:15:13.273Z,100.00
2023-07-01T06:17:40.008Z,100.00
2023-07-01T06:20:07.269Z,100.00
2023-07-01T06:22:33.860Z,100.00
2023-07-01T06:25:00.586Z,100.00
2023-07-01T06:27:27.278Z,100.00
2023-07-01T06:29:53.869Z,100.00
2023-07-01T06:32:20.601Z,100.00
2023-07-01T06:34:47.608Z,100.00
2023-07-01T06:37:14.278Z,100.00
2023-07-01T06:39:40.879Z,100.00
2023-07-01T06:42:07.875Z,100.00
2023-07-01T06:44:34.690Z,100.00
2023-07-01T06:47:02.448Z,100.00
2023-07-01T06:49:29.102Z,100.00
2023-07-01T06:51:55.776Z,100.00
2023-07-01T06:54:22.428Z,100.00
2023-07-01T06:56:49.118Z,100.00
2023-07-01T06:59:15.881Z,100.00
2023-07-01T07:01:42.560Z,100.00
2023-07-01T07:04:09.307Z,100.00
2023-07-01T07:06:36.017Z,100.00
2023-07-01T07:09:03.916Z,100.00
2023-07-01T07:11:31.280Z,100.00
2023-07-01T07:13:58.675Z,100.00
2023-07-01T07:16:27.456Z,100.00
2023-07-01T07:18:54.280Z,100.00
2023-07-01T07:21:21.058Z,100.00
2023-07-01T07:23:47.848Z,100.00
2023-07-01T07:26:15.035Z,100.00
2023-07-01T07:28:41.673Z,100.00
2023-07-01T07:31:08.369Z,100.00
2023-07-01T07:33:35.044Z,100.00
2023-07-01T07:36:01.586Z,100.00
2023-07-01T07:38:28.167Z,100.00
2023-07-01T07:40:54.757Z,100.00
2023-07-01T07:43:21.340Z,100.00
2023-07-01T07:45:47.992Z,100.00
2023-07-01T07:48:14.604Z,100.00
2023-07-01T07:50:41.167Z,100.00
2023-07-01T07:53:08.027Z,100.00
2023-07-01T07:55:35.462Z,100.00
2023-07-01T07:58:02.526Z,100.00
2023-07-01T08:00:29.392Z,100.00
2023-07-01T08:02:56.133Z,100.00
2023-07-01T08:05:23.258Z,100.00
2023-07-01T08:07:49.981Z,100.00
2023-07-01T08:10:17.097Z,100.00
2023-07-01T08:12:43.821Z,100.00
2023-07-01T08:15:11.026Z,100.00
2023-07-01T08:17:37.630Z,100.00
2023-07-01T08:20:05.553Z,100.00
2023-07-01T08:22:32.193Z,100.00
2023-07-01T08:24:59.410Z,100.00
2023-07-01T08:27:26.095Z,100.00
2023-07-01T08:29:52.751Z,100.00
2023-07-01T08:32:19.419Z,100.00
2023-07-01T08:34:46.085Z,100.00
2023-07-01T08:37:12.625Z,100.00
2023-07-01T08:39:39.309Z,100.00
2023-07-01T08:42:10.567Z,100.00
2023-07-01T08:44:39.669Z,100.00
2023-07-01T08:47:06.896Z,100.00
2023-07-01T08:49:35.555Z,100.00
2023-07-01T08:52:11.950Z,100.00
2023-07-01T08:54:38.760Z,100.00
2023-07-01T08:57:05.669Z,100.00
2023-07-01T08:59:32.855Z,100.00
2023-07-01T09:02:02.929Z,100.00
2023-07-01T09:04:29.717Z,100.00
2023-07-01T09:06:56.744Z,100.00
2023-07-01T09:09:23.576Z,100.00
2023-07-01T09:11:50.143Z,100.00
2023-07-01T09:14:16.765Z,100.00
2023-07-01T09:16:43.444Z,100.00
2023-07-01T09:19:23.392Z,100.00
2023-07-01T09:21:50.090Z,100.00
2023-07-01T09:24:17.025Z,100.00
2023-07-01T09:26:43.587Z,100.00
2023-07-01T09:29:12.310Z,100.00
2023-07-01T09:31:49.757Z,100.00
2023-07-01T09:34:18.425Z,100.00
2023-07-01T09:36:45.591Z,100.00
2023-07-01T09:39:12.242Z,100.00
2023-07-01T09:41:39.096Z,100.00
2023-07-01T09:44:20.542Z,100.00
2023-07-01T09:46:48.080Z,100.00
2023-07-01T09:49:14.886Z,100.00
2023-07-01T09:51:50.158Z,100.00
2023-07-01T09:54:30.519Z,100.00
2023-07-01T09:56:59.196Z,100.00
2023-07-01T09:59:26.665Z,100.00
2023-07-01T10:01:56.283Z,100.00
2023-07-01T10:04:27.148Z,100.00
2023-07-01T10:06:55.156Z,100.00
2023-07-01T10:09:24.495Z,100.00
2023-07-01T10:11:53.202Z,100.00
2023-07-01T10:14:23.230Z,100.00
2023-07-01T10:16:50.448Z,100.00
2023-07-01T10:19:27.365Z,100.00
2023-07-01T10:21:54.960Z,100.00
2023-07-01T10:24:40.222Z,100.00
2023-07-01T10:27:06.921Z,100.00
2023-07-01T10:29:34.479Z,100.00
2023-07-01T10:32:10.328Z,100.00
2023-07-01T10:34:56.093Z,100.00
2023-07-01T10:37:24.417Z,100.00
2023-07-01T10:39:51.432Z,100.00
2023-07-01T10:42:33.234Z,100.00
2023-07-01T10:45:12.135Z,100.00
2023-07-01T10:47:44.197Z,99.78
2023-07-01T10:50:15.748Z,100.00
2023-07-01T10:53:00.504Z,100.00
2023-07-01T10:55:45.637Z,98.89
2023-07-01T10:58:24.715Z,98.81
2023-07-01T11:00:58.417Z,97.48
2023-07-01T11:03:37.971Z,98.79
2023-07-01T11:06:05.966Z,97.38
2023-07-01T11:08:34.588Z,95.50
2023-07-01T11:11:01.222Z,93.54
2023-07-01T11:13:27.827Z,93.73
2023-07-01T11:16:24.115Z,92.87
2023-07-01T11:18:52.294Z,92.82
2023-07-01T11:21:26.772Z,91.53
2023-07-01T11:23:58.774Z,91.23
2023-07-01T11:26:27.755Z,90.17
2023-07-01T11:28:54.409Z,89.50
2023-07-01T11:31:26.664Z,88.53
2023-07-01T11:33:55.406Z,87.86
2023-07-01T11:36:36.136Z,86.16
2023-07-01T11:39:09.700Z,83.61
2023-07-01T11:41:37.459Z,84.48
2023-07-01T11:44:05.448Z,85.74
2023-07-01T11:46:33.286Z,86.93
2023-07-01T11:49:22.400Z,86.84
2023-07-01T11:51:54.418Z,87.35
2023-07-01T11:54:23.741Z,89.23
2023-07-01T11:56:54.188Z,89.51
2023-07-01T11:59:35.271Z,90.96
2023-07-01T12:02:02.254Z,92.45
2023-07-01T12:04:29.464Z,93.10
2023-07-01T12:07:25.701Z,91.08
2023-07-01T12:09:52.517Z,89.46
2023-07-01T12:12:36.889Z,87.46
2023-07-01T12:15:13.065Z,87.26
2023-07-01T12:17:40.085Z,85.71
2023-07-01T12:20:09.636Z,84.97
2023-07-01T12:22:37.064Z,86.28
2023-07-01T12:25:04.516Z,84.74
2023-07-01T12:27:31.668Z,84.32
2023-07-01T12:29:58.419Z,85.87
2023-07-01T12:32:26.200Z,85.24
2023-07-01T12:34:53.732Z,80.52
2023-07-01T12:37:20.886Z,79.64
2023-07-01T12:39:51.552Z,75.60
2023-07-01T12:42:18.165Z,76.51
2023-07-01T12:44:46.039Z,75.62
2023-07-01T12:47:13.117Z,75.08
2023-07-01T12:49:41.242Z,73.96
2023-07-01T12:52:08.049Z,76.16
2023-07-01T12:54:34.829Z,76.90
2023-07-01T12:57:02.734Z,76.76
2023-07-01T12:59:29.470Z,73.41
2023-07-01T13:01:56.507Z,72.27
2023-07-01T13:04:23.463Z,70.41
2023-07-01T13:06:50.325Z,71.28
2023-07-01T13:09:19.436Z,71.77
2023-07-01T13:11:47.151Z,70.70
2023-07-01T13:14:15.035Z,69.44
2023-07-01T13:16:43.545Z,70.14
2023-07-01T13:19:15.235Z,67.90
2023-07-01T13:21:50.647Z,67.35
2023-07-01T13:24:17.760Z,67.13
2023-07-01T13:26:46.580Z,66.93
2023-07-01T13:29:15.174Z,66.78
2023-07-01T13:31:42.742Z,66.83
2023-07-01T13:34:09.880Z,67.44
2023-07-01T13:36:38.252Z,68.79
2023-07-01T13:39:14.127Z,68.76
2023-07-01T13:41:40.794Z,69.76
2023-07-01T13:44:36.908Z,69.79
2023-07-01T13:47:03.716Z,71.20
2023-07-01T13:49:30.850Z,71.48
2023-07-01T13:51:57.774Z,71.54
2023-07-01T13:54:26.603Z,69.94
2023-07-01T13:56:54.875Z,69.68
2023-07-01T13:59:22.723Z,69.89
2023-07-01T14:02:18.731Z,68.50
2023-07-01T14:04:45.311Z,68.54
2023-07-01T14:07:17.182Z,66.86
2023-07-01T14:09:44.105Z,67.28
2023-07-01T14:12:11.823Z,66.58
2023-07-01T14:14:38.585Z,67.50
2023-07-01T14:17:07.068Z,68.23
2023-07-01T14:19:37.450Z,69.03
2023-07-01T14:22:04.180Z,69.57
2023-07-01T14:24:34.687Z,69.50
2023-07-01T14:27:01.618Z,70.71
2023-07-01T14:29:28.850Z,72.61
2023-07-01T14:31:57.442Z,71.55
2023-07-01T14:34:32.980Z,70.67
2023-07-01T14:37:00.118Z,68.33
2023-07-01T14:39:47.050Z,68.40
2023-07-01T14:42:24.660Z,69.07
2023-07-01T14:44:52.181Z,68.28
2023-07-01T14:47:18.816Z,68.44
2023-07-01T14:49:45.457Z,67.89
2023-07-01T14:52:12.113Z,68.13
2023-07-01T14:54:38.983Z,67.44
2023-07-01T14:57:05.954Z,67.40
2023-07-01T14:59:32.923Z,66.75
2023-07-01T15:02:00.622Z,65.92
2023-07-01T15:04:27.638Z,65.01
2023-07-01T15:06:54.584Z,63.73
2023-07-01T15:09:21.218Z,61.15
2023-07-01T15:11:47.776Z,58.64
2023-07-01T15:14:14.502Z,57.83
2023-07-01T15:16:41.164Z,58.51
2023-07-01T15:19:08.033Z,60.19
2023-07-01T15:21:34.653Z,59.44
2023-07-01T15:24:01.249Z,58.01
2023-07-01T15:26:27.940Z,59.34
2023-07-01T15:28:54.515Z,58.71
2023-07-01T15:31:21.170Z,60.20
2023-07-01T15:33:47.882Z,60.36
2023-07-01T15:36:14.471Z,60.58
2023-07-01T15:38:41.141Z,59.38
2023-07-01T15:41:08.528Z,58.91
2023-07-01T15:43:35.170Z,58.11
2023-07-01T15:46:01.782Z,57.97
2023-07-01T15:48:29.821Z,57.51
2023-07-01T15:50:57.549Z,57.08
2023-07-01T15:53:24.992Z,58.29
2023-07-01T15:55:54.129Z,58.20
2023-07-01T15:58:21.102Z,58.98
2023-07-01T16:00:47.916Z,59.65
2023-07-01T16:03:14.925Z,61.48
2023-07-01T16:05:41.582Z,62.92
2023-07-01T16:08:13.198Z,64.67
2023-07-01T16:10:40.109Z,64.63
2023-07-01T16:13:07.375Z,64.37
2023-07-01T16:16:01.132Z,63.26
2023-07-01T16:18:30.724Z,64.43
2023-07-01T16:21:03.390Z,63.39
2023-07-01T16:23:31.467Z,64.34
2023-07-01T16:25:59.412Z,66.35
2023-07-01T16:28:45.049Z,66.16
2023-07-01T16:31:18.784Z,68.18
2023-07-01T16:33:45.506Z,68.87
2023-07-01T16:36:17.032Z,68.77
2023-07-01T16:38:44.065Z,69.58
2023-07-01T16:41:11.177Z,69.61
2023-07-01T16:43:42.225Z,68.80
2023-07-01T16:46:12.598Z,70.26
2023-07-01T16:48:46.239Z,69.20
2023-07-01T16:51:16.367Z,69.18
2023-07-01T16:53:47.773Z,69.56
2023-07-01T16:56:15.909Z,69.57
2023-07-01T16:58:50.311Z,69.05
2023-07-01T17:01:31.396Z,69.65
2023-07-01T17:03:58.162Z,67.49
2023-07-01T17:06:45.695Z,68.83
2023-07-01T17:09:37.270Z,69.73
2023-07-01T17:12:04.228Z,70.55
2023-07-01T17:14:49.148Z,69.63
2023-07-01T17:17:33.957Z,69.35
2023-07-01T17:20:10.271Z,69.38
2023-07-01T17:22:39.180Z,69.16
2023-07-01T17:25:06.234Z,69.13
2023-07-01T17:27:32.984Z,69.26
2023-07-01T17:30:00.350Z,69.28
2023-07-01T17:32:27.128Z,69.48
2023-07-01T17:35:05.893Z,68.89
2023-07-01T17:37:32.456Z,69.79
2023-07-01T17:39:59.291Z,69.04
2023-07-01T17:42:25.962Z,69.27
2023-07-01T17:45:03.954Z,69.80
2023-07-01T17:47:30.686Z,69.35
2023-07-01T17:50:10.513Z,68.99
2023-07-01T17:52:45.523Z,69.16
2023-07-01T17:55:14.981Z,69.20
2023-07-01T17:57:54.014Z,70.07
2023-07-01T18:00:21.961Z,69.32
2023-07-01T18:02:48.749Z,69.74
2023-07-01T18:05:16.032Z,70.20
2023-07-01T18:07:43.686Z,69.69
2023-07-01T18:10:11.362Z,69.92
2023-07-01T18:12:39.717Z,69.50
2023-07-01T18:15:14.829Z,69.62
2023-07-01T18:17:42.722Z,69.25
2023-07-01T18:20:09.721Z,69.11
2023-07-01T18:22:37.650Z,70.03
2023-07-01T18:25:05.313Z,69.43
2023-07-01T18:27:32.689Z,70.56
2023-07-01T18:29:59.248Z,71.36
2023-07-01T18:32:26.296Z,71.51
2023-07-01T18:34:53.115Z,71.69
2023-07-01T18:37:19.736Z,72.00
2023-07-01T18:39:47.463Z,72.57
2023-07-01T18:42:14.153Z,72.45
2023-07-01T18:44:40.862Z,72.32
2023-07-01T18:47:07.681Z,72.66
2023-07-01T18:49:34.283Z,72.28
2023-07-01T18:52:03.897Z,72.61
2023-07-01T18:54:30.856Z,72.70
2023-07-01T18:56:57.484Z,73.94
2023-07-01T18:59:24.013Z,73.30
2023-07-01T19:01:50.759Z,73.63
2023-07-01T19:04:17.396Z,73.65
2023-07-01T19:06:43.984Z,73.37
2023-07-01T19:09:11.571Z,74.44
2023-07-01T19:11:38.146Z,73.95
2023-07-01T19:14:04.788Z,74.86
2023-07-01T19:16:31.455Z,74.31
2023-07-01T19:18:58.107Z,73.56
2023-07-01T19:21:24.742Z,73.62
2023-07-01T19:23:51.377Z,74.35
2023-07-01T19:26:17.904Z,74.48
2023-07-01T19:28:45.043Z,74.98
2023-07-01T19:31:11.870Z,75.20
2023-07-01T19:33:39.874Z,74.98
2023-07-01T19:36:06.383Z,75.24
2023-07-01T19:38:33.434Z,75.50
2023-07-01T19:41:00.067Z,75.99
2023-07-01T19:43:26.694Z,76.29
2023-07-01T19:45:54.084Z,76.63
2023-07-01T19:48:20.839Z,76.91
2023-07-01T19:50:47.528Z,76.56
2023-07-01T19:53:15.394Z,76.84
2023-07-01T19:55:42.666Z,76.53
2023-07-01T19:58:09.299Z,76.16
2023-07-01T20:00:38.925Z,76.44
2023-07-01T20:03:06.002Z,76.73
2023-07-01T20:05:32.773Z,77.23
2023-07-01T20:07:59.590Z,76.98
2023-07-01T20:10:30.830Z,77.15
2023-07-01T20:12:59.634Z,77.07
2023-07-01T20:15:26.954Z,77.23
2023-07-01T20:17:53.629Z,77.84
2023-07-01T20:20:20.327Z,78.67
2023-07-01T20:22:47.233Z,78.83
2023-07-01T20:25:13.908Z,78.72
2023-07-01T20:27:40.519Z,77.93
2023-07-01T20:30:11.230Z,77.16
2023-07-01T20:32:38.586Z,77.47
2023-07-01T20:35:06.332Z,77.74
2023-07-01T20:37:33.403Z,78.05
2023-07-01T20:40:00.491Z,78.30
2023-07-01T20:42:27.387Z,78.87
2023-07-01T20:44:54.204Z,78.31
2023-07-01T20:47:21.218Z,78.85
2023-07-01T20:49:48.749Z,78.67
2023-07-01T20:52:16.454Z,78.91
2023-07-01T20:54:43.758Z,79.15
2023-07-01T20:57:10.745Z,79.16
2023-07-01T20:59:37.393Z,79.47
2023-07-01T21:02:04.564Z,79.81
2023-07-01T21:04:31.441Z,79.36
2023-07-01T21:06:58.239Z,79.82
2023-07-01T21:09:24.854Z,79.02
2023-07-01T21:11:51.427Z,78.89
2023-07-01T21:14:18.396Z,78.73
2023-07-01T21:16:46.741Z,78.69
2023-07-01T21:19:13.916Z,78.76
2023-07-01T21:21:40.606Z,79.22
2023-07-01T21:24:07.821Z,79.88
2023-07-01T21:26:37.027Z,81.15
2023-07-01T21:29:05.575Z,81.43
2023-07-01T21:31:33.528Z,82.20
2023-07-01T21:34:00.454Z,82.72
2023-07-01T21:36:27.032Z,83.23
2023-07-01T21:38:53.906Z,84.25
2023-07-01T21:41:20.734Z,85.82
2023-07-01T21:43:49.631Z,86.56
2023-07-01T21:46:16.918Z,87.74
2023-07-01T21:48:43.746Z,88.93
2023-07-01T21:51:11.452Z,89.87
2023-07-01T21:53:45.604Z,90.67
2023-07-01T21:56:14.158Z,91.09
2023-07-01T21:58:47.697Z,91.52
2023-07-01T22:01:18.188Z,91.45
2023-07-01T22:03:45.922Z,92.39
2023-07-01T22:06:14.597Z,92.38
2023-07-01T22:08:42.701Z,93.32
2023-07-01T22:11:09.380Z,93.38
2023-07-01T22:13:36.301Z,94.00
2023-07-01T22:16:03.523Z,93.86
2023-07-01T22:18:30.611Z,94.00
2023-07-01T22:20:58.481Z,94.42
2023-07-01T22:23:25.092Z,94.14
2023-07-01T22:25:51.882Z,94.14
2023-07-01T22:28:18.539Z,93.55
2023-07-01T22:30:45.863Z,93.44
2023-07-01T22:33:13.066Z,92.42
2023-07-01T22:35:39.748Z,92.11
2023-07-01T22:38:06.351Z,91.45
2023-07-01T22:40:32.916Z,91.52
2023-07-01T22:42:59.489Z,91.05
2023-07-01T22:45:26.113Z,90.51
2023-07-01T22:47:52.804Z,90.26
2023-07-01T22:50:20.810Z,90.16
2023-07-01T22:52:47.723Z,89.85
2023-07-01T22:55:14.413Z,89.50
2023-07-01T22:57:41.252Z,89.39
2023-07-01T23:00:10.305Z,89.00
2023-07-01T23:02:38.115Z,88.82
2023-07-01T23:05:05.746Z,88.94
2023-07-01T23:07:32.468Z,91.19
2023-07-01T23:10:01.156Z,94.06
2023-07-01T23:12:31.116Z,95.06
2023-07-01T23:14:58.014Z,95.46
2023-07-01T23:17:25.115Z,96.32
2023-07-01T23:19:54.068Z,95.01
2023-07-01T23:22:22.136Z,94.25
2023-07-01T23:24:48.851Z,93.24
2023-07-01T23:27:18.490Z,94.21
2023-07-01T23:29:46.302Z,94.18
2023-07-01T23:32:14.842Z,94.05
2023-07-01T23:34:50.927Z,93.86
2023-07-01T23:37:18.405Z,93.66
2023-07-01T23:39:45.388Z,92.76
2023-07-01T23:42:13.548Z,88.52
2023-07-01T23:44:40.188Z,86.65
2023-07-01T23:47:07.714Z,84.80
2023-07-01T23:49:35.212Z,83.92
2023-07-01T23:52:02.408Z,81.36
2023-07-01T23:54:29.124Z,80.14
2023-07-01T23:56:56.072Z,80.06
2023-07-01T23:59:22.724Z,80.10
